Plato — 8PRX — position and weather

sailwx.info

Track history (hours):
 
Tides and Currents Weather Stations Pressure Air Temp Water Temp Dewpoint Dewpoint Depression Visibility Wind Speed Wind Dir Waves Ship Positions

Plato

Last reported at 2014-Jul-25 18:28 UTC. Time now 2014-Jul-30 03:01 UTC.
Position N 50°35' E 000°23'.

Length 88 m; draft 4.5 m.

Type: Ship. MMSI: 314189000.

Date/timePositionNaut miles runAvg speedWind from/ knotsBaromVisibWave heightAir tempDewpointWater temp
2014-Jul-25 18:28N 50°35' E 000°23'8 8.4
2014-Jul-25 17:33N 50°38' E 000°34'10 9.5
2014-Jul-25 16:33N 50°43' E 000°47'11 9.8
2014-Jul-25 15:27N 50°49' E 001°01'18 9.8
2014-Jul-25 13:33N 51°02' E 001°22'7 7.4
2014-Jul-25 12:33N 51°06' E 001°32'7 6.8
2014-Jul-25 11:33N 51°10' E 001°40'7 7.0
2014-Jul-25 10:33N 51°16' E 001°47'8 8.4
2014-Jul-25 09:33N 51°23' E 001°54'10 9.7
2014-Jul-25 08:33N 51°30' E 002°04'1010.4
2014-Jul-25 07:33N 51°38' E 002°15'1311.5
2014-Jul-25 06:24N 51°49' E 002°29'46 7.5
2014-Jul-25 00:17N 52°03' E 003°40'6 8.3
2014-Jul-24 23:31N 52°02' E 003°50'9 9.9
2014-Jul-24 22:33N 51°59' E 004°05'5 4.9
2014-Jul-24 21:32N 51°56' E 004°11'0 0.0
2014-Jul-24 20:31N 51°56' E 004°11'0 0.0
2014-Jul-24 18:05N 51°56' E 004°11'0 0.0
2014-Jul-24 17:32N 51°56' E 004°11'0 0.0
2014-Jul-24 16:25N 51°56' E 004°11'0 0.0
2014-Jul-24 15:22N 51°56' E 004°11'0 0.0
2014-Jul-24 14:20N 51°56' E 004°11'0 0.0
2014-Jul-24 13:07N 51°56' E 004°11'0 0.0
2014-Jul-24 12:31N 51°56' E 004°11'0 0.0
2014-Jul-24 11:33N 51°56' E 004°11'0 0.0
2014-Jul-24 09:32N 51°56' E 004°11'0 0.0
2014-Jul-24 08:10N 51°56' E 004°11'0 0.0
2014-Jul-24 07:30N 51°56' E 004°11'0 0.0
2014-Jul-24 06:12N 51°56' E 004°11'0 0.0
2014-Jul-24 04:25N 51°56' E 004°11'0 0.0
2014-Jul-24 03:07N 51°56' E 004°11'0 0.0
2014-Jul-24 02:24N 51°56' E 004°11'0 0.0
2014-Jul-24 01:33N 51°56' E 004°11'0 0.0
2014-Jul-24 00:32N 51°56' E 004°11'0 0.0
2014-Jul-23 22:27N 51°56' E 004°11'0 0.0
2014-Jul-23 21:30N 51°56' E 004°11'0 0.0
2014-Jul-23 20:26N 51°56' E 004°11'0 0.0
2014-Jul-23 19:28N 51°56' E 004°11'0 0.0
2014-Jul-23 18:31N 51°56' E 004°11'0 0.0
2014-Jul-23 17:24N 51°56' E 004°11'0 0.0
2014-Jul-23 16:33N 51°56' E 004°11'0 0.0
2014-Jul-23 15:08N 51°56' E 004°11'0 0.0
2014-Jul-23 14:13N 51°56' E 004°11'0 0.0
2014-Jul-23 13:31N 51°56' E 004°11'0 0.0
2014-Jul-23 12:33N 51°56' E 004°11'4 3.8
2014-Jul-23 11:33N 51°58' E 004°06'8 8.5
2014-Jul-23 10:33N 52°01' E 003°53'75 8.0
2014-Jul-23 01:06N 52°45' E 002°13'4 7.5
2014-Jul-23 00:33N 52°47' E 002°08'7 7.2
2014-Jul-22 23:33N 52°53' E 001°59'7 7.0
2014-Jul-22 22:33N 52°56' E 001°50'7 6.8
2014-Jul-22 21:33N 53°00' E 001°40'8 7.5
2014-Jul-22 20:33N 53°03' E 001°28'8 8.0
2014-Jul-22 19:33N 53°04' E 001°15'  
2014-Jul-19 03:15N 52°56' E 000°15'0 0.0
2014-Jul-19 01:32N 52°56' E 000°15'  
Track history (hours):
 
Tides and Currents Weather Stations Pressure Air Temp Water Temp Dewpoint Dewpoint Depression Visibility Wind Speed Wind Dir Waves Ship Positions

Plato

Last reported at 2014-Jul-25 18:28 UTC. Time now 2014-Jul-30 03:01 UTC.
Position N 50°35' E 000°23'.

Length 88 m; draft 4.5 m.

Type: Ship. MMSI: 314189000.

Date/timePositionNaut miles runAvg speedWind from/ knotsBaromVisibWave heightAir tempDewpointWater temp
2014-Jul-25 18:28N 50°35' E 000°23'8 8.4
2014-Jul-25 17:33N 50°38' E 000°34'10 9.5
2014-Jul-25 16:33N 50°43' E 000°47'11 9.8
2014-Jul-25 15:27N 50°49' E 001°01'18 9.8
2014-Jul-25 13:33N 51°02' E 001°22'7 7.4
2014-Jul-25 12:33N 51°06' E 001°32'7 6.8
2014-Jul-25 11:33N 51°10' E 001°40'7 7.0
2014-Jul-25 10:33N 51°16' E 001°47'8 8.4
2014-Jul-25 09:33N 51°23' E 001°54'10 9.7
2014-Jul-25 08:33N 51°30' E 002°04'1010.4
2014-Jul-25 07:33N 51°38' E 002°15'1311.5
2014-Jul-25 06:24N 51°49' E 002°29'46 7.5
2014-Jul-25 00:17N 52°03' E 003°40'6 8.3
2014-Jul-24 23:31N 52°02' E 003°50'9 9.9
2014-Jul-24 22:33N 51°59' E 004°05'5 4.9
2014-Jul-24 21:32N 51°56' E 004°11'0 0.0
2014-Jul-24 20:31N 51°56' E 004°11'0 0.0
2014-Jul-24 18:05N 51°56' E 004°11'0 0.0
2014-Jul-24 17:32N 51°56' E 004°11'0 0.0
2014-Jul-24 16:25N 51°56' E 004°11'0 0.0
2014-Jul-24 15:22N 51°56' E 004°11'0 0.0
2014-Jul-24 14:20N 51°56' E 004°11'0 0.0
2014-Jul-24 13:07N 51°56' E 004°11'0 0.0
2014-Jul-24 12:31N 51°56' E 004°11'0 0.0
2014-Jul-24 11:33N 51°56' E 004°11'0 0.0
2014-Jul-24 09:32N 51°56' E 004°11'0 0.0
2014-Jul-24 08:10N 51°56' E 004°11'0 0.0
2014-Jul-24 07:30N 51°56' E 004°11'0 0.0
2014-Jul-24 06:12N 51°56' E 004°11'0 0.0
2014-Jul-24 04:25N 51°56' E 004°11'0 0.0
2014-Jul-24 03:07N 51°56' E 004°11'0 0.0
2014-Jul-24 02:24N 51°56' E 004°11'0 0.0
2014-Jul-24 01:33N 51°56' E 004°11'0 0.0
2014-Jul-24 00:32N 51°56' E 004°11'0 0.0
2014-Jul-23 22:27N 51°56' E 004°11'0 0.0
2014-Jul-23 21:30N 51°56' E 004°11'0 0.0
2014-Jul-23 20:26N 51°56' E 004°11'0 0.0
2014-Jul-23 19:28N 51°56' E 004°11'0 0.0
2014-Jul-23 18:31N 51°56' E 004°11'0 0.0
2014-Jul-23 17:24N 51°56' E 004°11'0 0.0
2014-Jul-23 16:33N 51°56' E 004°11'0 0.0
2014-Jul-23 15:08N 51°56' E 004°11'0 0.0
2014-Jul-23 14:13N 51°56' E 004°11'0 0.0
2014-Jul-23 13:31N 51°56' E 004°11'0 0.0
2014-Jul-23 12:33N 51°56' E 004°11'4 3.8
2014-Jul-23 11:33N 51°58' E 004°06'8 8.5
2014-Jul-23 10:33N 52°01' E 003°53'75 8.0
2014-Jul-23 01:06N 52°45' E 002°13'4 7.5
2014-Jul-23 00:33N 52°47' E 002°08'7 7.2
2014-Jul-22 23:33N 52°53' E 001°59'7 7.0
2014-Jul-22 22:33N 52°56' E 001°50'7 6.8
2014-Jul-22 21:33N 53°00' E 001°40'8 7.5
2014-Jul-22 20:33N 53°03' E 001°28'8 8.0
2014-Jul-22 19:33N 53°04' E 001°15'  
2014-Jul-19 03:15N 52°56' E 000°15'0 0.0
2014-Jul-19 01:32N 52°56' E 000°15'  

Dump ship's entire track history